• 1

Unser Programm für 2016

  • 1

WebCam

Kamera Halle
Kamera Vorplatz
Wetter EDDS

METAR

EDDS 011250Z VRB07KT CAVOK 26/15 Q1017 NOSIG =


TAF

EDDS 011100Z 0112/0212 23008KT 9999 FEW045 BECMG 0117/0120 VRB03KT PROB30 TEMPO 0203/0208 23006KT SHRA BKN040CB BECMG 0207/0210 26011KT =


SR/SS

03:23 / 19:27 UTC
(EDSO 01-07-2016)

Austräger der GPS Triangle WM 2017